sensor_id;sensor_type;location;lat;lon;timestamp;P1;durP1;ratioP1;P2;durP2;ratioP2
47635;SDS011;33364;50.766;15.338;2023-06-04T00:00:48;3.90;;;1.40;;
47635;SDS011;33364;50.766;15.338;2023-06-04T00:03:34;2.15;;;1.05;;
47635;SDS011;33364;50.766;15.338;2023-06-04T00:06:00;3.00;;;1.23;;
47635;SDS011;33364;50.766;15.338;2023-06-04T00:08:26;2.33;;;1.27;;
47635;SDS011;33364;50.766;15.338;2023-06-04T00:10:52;3.15;;;1.55;;
47635;SDS011;33364;50.766;15.338;2023-06-04T00:13:18;3.35;;;1.85;;
47635;SDS011;33364;50.766;15.338;2023-06-04T00:15:43;4.03;;;1.70;;
47635;SDS011;33364;50.766;15.338;2023-06-04T00:18:09;5.22;;;1.95;;
47635;SDS011;33364;50.766;15.338;2023-06-04T00:20:36;4.20;;;1.75;;
47635;SDS011;33364;50.766;15.338;2023-06-04T00:23:02;4.85;;;1.52;;
47635;SDS011;33364;50.766;15.338;2023-06-04T00:25:28;3.92;;;1.75;;
47635;SDS011;33364;50.766;15.338;2023-06-04T00:27:54;3.33;;;1.45;;
47635;SDS011;33364;50.766;15.338;2023-06-04T00:30:20;2.55;;;1.40;;
47635;SDS011;33364;50.766;15.338;2023-06-04T00:32:45;3.25;;;1.58;;
47635;SDS011;33364;50.766;15.338;2023-06-04T00:35:12;2.97;;;1.38;;
47635;SDS011;33364;50.766;15.338;2023-06-04T00:37:38;4.50;;;1.80;;
47635;SDS011;33364;50.766;15.338;2023-06-04T00:40:04;3.47;;;1.90;;
47635;SDS011;33364;50.766;15.338;2023-06-04T00:42:31;3.17;;;1.80;;
47635;SDS011;33364;50.766;15.338;2023-06-04T00:44:57;3.53;;;1.88;;
47635;SDS011;33364;50.766;15.338;2023-06-04T00:47:23;4.25;;;1.88;;
47635;SDS011;33364;50.766;15.338;2023-06-04T00:49:50;7.97;;;2.40;;
47635;SDS011;33364;50.766;15.338;2023-06-04T00:52:16;4.35;;;2.10;;
47635;SDS011;33364;50.766;15.338;2023-06-04T00:54:42;2.47;;;1.52;;
47635;SDS011;33364;50.766;15.338;2023-06-04T00:57:08;4.53;;;2.42;;
47635;SDS011;33364;50.766;15.338;2023-06-04T00:59:35;5.07;;;2.40;;
47635;SDS011;33364;50.766;15.338;2023-06-04T01:02:05;4.57;;;2.17;;
47635;SDS011;33364;50.766;15.338;2023-06-04T01:04:37;7.35;;;2.22;;
47635;SDS011;33364;50.766;15.338;2023-06-04T01:07:15;7.57;;;2.65;;
47635;SDS011;33364;50.766;15.338;2023-06-04T01:09:41;8.80;;;4.15;;
47635;SDS011;33364;50.766;15.338;2023-06-04T01:12:09;14.55;;;6.93;;
47635;SDS011;33364;50.766;15.338;2023-06-04T01:14:36;14.20;;;6.60;;
47635;SDS011;33364;50.766;15.338;2023-06-04T01:17:04;10.23;;;5.22;;
47635;SDS011;33364;50.766;15.338;2023-06-04T01:25:32;2.15;;;1.27;;
47635;SDS011;33364;50.766;15.338;2023-06-04T01:28:01;2.38;;;1.20;;
47635;SDS011;33364;50.766;15.338;2023-06-04T01:30:32;1.98;;;1.10;;
47635;SDS011;33364;50.766;15.338;2023-06-04T01:33:00;2.03;;;1.10;;
47635;SDS011;33364;50.766;15.338;2023-06-04T01:35:27;2.45;;;1.20;;
47635;SDS011;33364;50.766;15.338;2023-06-04T01:37:54;2.55;;;1.02;;
47635;SDS011;33364;50.766;15.338;2023-06-04T01:40:20;4.35;;;1.20;;
47635;SDS011;33364;50.766;15.338;2023-06-04T01:42:46;2.92;;;1.52;;
47635;SDS011;33364;50.766;15.338;2023-06-04T01:45:12;1.92;;;1.20;;
47635;SDS011;33364;50.766;15.338;2023-06-04T01:47:38;3.92;;;1.13;;
47635;SDS011;33364;50.766;15.338;2023-06-04T01:50:04;5.35;;;0.95;;
47635;SDS011;33364;50.766;15.338;2023-06-04T01:52:40;3.33;;;1.00;;
47635;SDS011;33364;50.766;15.338;2023-06-04T01:55:07;2.42;;;1.10;;
47635;SDS011;33364;50.766;15.338;2023-06-04T01:57:34;1.77;;;1.00;;
47635;SDS011;33364;50.766;15.338;2023-06-04T02:00:02;1.65;;;0.93;;
47635;SDS011;33364;50.766;15.338;2023-06-04T02:02:30;1.80;;;0.90;;
47635;SDS011;33364;50.766;15.338;2023-06-04T02:04:56;3.17;;;1.10;;
47635;SDS011;33364;50.766;15.338;2023-06-04T02:07:22;1.42;;;1.00;;
47635;SDS011;33364;50.766;15.338;2023-06-04T02:09:47;3.17;;;1.20;;
47635;SDS011;33364;50.766;15.338;2023-06-04T02:12:14;4.15;;;1.15;;
47635;SDS011;33364;50.766;15.338;2023-06-04T02:14:40;3.17;;;1.00;;
47635;SDS011;33364;50.766;15.338;2023-06-04T02:17:11;1.10;;;0.75;;
47635;SDS011;33364;50.766;15.338;2023-06-04T02:19:41;2.33;;;1.00;;
47635;SDS011;33364;50.766;15.338;2023-06-04T02:22:16;1.75;;;1.00;;
47635;SDS011;33364;50.766;15.338;2023-06-04T02:24:43;1.40;;;1.00;;
47635;SDS011;33364;50.766;15.338;2023-06-04T02:27:09;1.60;;;0.85;;
47635;SDS011;33364;50.766;15.338;2023-06-04T02:29:36;1.85;;;0.82;;
47635;SDS011;33364;50.766;15.338;2023-06-04T02:32:02;2.88;;;0.88;;
47635;SDS011;33364;50.766;15.338;2023-06-04T02:34:29;2.28;;;1.00;;
47635;SDS011;33364;50.766;15.338;2023-06-04T02:36:55;1.65;;;0.88;;
47635;SDS011;33364;50.766;15.338;2023-06-04T02:39:20;1.83;;;1.10;;
47635;SDS011;33364;50.766;15.338;2023-06-04T02:41:46;2.42;;;1.17;;
47635;SDS011;33364;50.766;15.338;2023-06-04T02:44:12;5.18;;;1.00;;
47635;SDS011;33364;50.766;15.338;2023-06-04T02:46:38;1.83;;;1.10;;
47635;SDS011;33364;50.766;15.338;2023-06-04T02:49:04;1.30;;;0.90;;
47635;SDS011;33364;50.766;15.338;2023-06-04T02:51:30;2.50;;;1.00;;
47635;SDS011;33364;50.766;15.338;2023-06-04T02:53:58;2.13;;;1.17;;
47635;SDS011;33364;50.766;15.338;2023-06-04T02:56:24;1.75;;;0.80;;
47635;SDS011;33364;50.766;15.338;2023-06-04T02:58:51;3.33;;;1.17;;
47635;SDS011;33364;50.766;15.338;2023-06-04T03:01:21;1.00;;;0.73;;
47635;SDS011;33364;50.766;15.338;2023-06-04T03:03:48;4.28;;;1.17;;
47635;SDS011;33364;50.766;15.338;2023-06-04T03:06:15;3.40;;;1.20;;
47635;SDS011;33364;50.766;15.338;2023-06-04T03:08:42;3.15;;;1.08;;
47635;SDS011;33364;50.766;15.338;2023-06-04T03:11:08;4.45;;;0.90;;
47635;SDS011;33364;50.766;15.338;2023-06-04T03:13:34;1.73;;;0.98;;
47635;SDS011;33364;50.766;15.338;2023-06-04T03:16:01;3.45;;;0.93;;
47635;SDS011;33364;50.766;15.338;2023-06-04T03:18:27;1.73;;;1.00;;
47635;SDS011;33364;50.766;15.338;2023-06-04T03:20:54;2.25;;;1.20;;
47635;SDS011;33364;50.766;15.338;2023-06-04T03:23:20;2.20;;;1.00;;
47635;SDS011;33364;50.766;15.338;2023-06-04T03:25:46;2.05;;;1.35;;
47635;SDS011;33364;50.766;15.338;2023-06-04T03:28:13;1.20;;;1.05;;
47635;SDS011;33364;50.766;15.338;2023-06-04T03:30:40;2.10;;;1.05;;
47635;SDS011;33364;50.766;15.338;2023-06-04T03:33:07;2.30;;;0.98;;
47635;SDS011;33364;50.766;15.338;2023-06-04T03:35:33;1.25;;;0.95;;
47635;SDS011;33364;50.766;15.338;2023-06-04T03:37:59;1.80;;;0.82;;
47635;SDS011;33364;50.766;15.338;2023-06-04T03:40:25;3.22;;;1.02;;
47635;SDS011;33364;50.766;15.338;2023-06-04T03:42:51;2.35;;;0.90;;
47635;SDS011;33364;50.766;15.338;2023-06-04T03:45:16;1.58;;;0.98;;
47635;SDS011;33364;50.766;15.338;2023-06-04T03:47:42;2.05;;;0.80;;
47635;SDS011;33364;50.766;15.338;2023-06-04T03:50:08;5.22;;;1.20;;
47635;SDS011;33364;50.766;15.338;2023-06-04T03:52:34;1.13;;;0.88;;
47635;SDS011;33364;50.766;15.338;2023-06-04T03:55:01;2.33;;;0.93;;
47635;SDS011;33364;50.766;15.338;2023-06-04T03:57:26;1.48;;;1.00;;
47635;SDS011;33364;50.766;15.338;2023-06-04T03:59:52;1.95;;;1.10;;
47635;SDS011;33364;50.766;15.338;2023-06-04T04:02:18;1.63;;;1.00;;
47635;SDS011;33364;50.766;15.338;2023-06-04T04:04:44;1.98;;;1.23;;
47635;SDS011;33364;50.766;15.338;2023-06-04T04:07:09;3.88;;;1.50;;
47635;SDS011;33364;50.766;15.338;2023-06-04T04:09:36;1.75;;;1.00;;
47635;SDS011;33364;50.766;15.338;2023-06-04T04:12:02;0.93;;;0.75;;
47635;SDS011;33364;50.766;15.338;2023-06-04T04:14:29;1.38;;;0.80;;
47635;SDS011;33364;50.766;15.338;2023-06-04T04:16:55;2.08;;;1.27;;
47635;SDS011;33364;50.766;15.338;2023-06-04T04:19:21;4.57;;;1.00;;
47635;SDS011;33364;50.766;15.338;2023-06-04T04:21:47;1.73;;;1.00;;
47635;SDS011;33364;50.766;15.338;2023-06-04T04:24:23;2.97;;;1.30;;
47635;SDS011;33364;50.766;15.338;2023-06-04T04:26:49;1.85;;;0.90;;
47635;SDS011;33364;50.766;15.338;2023-06-04T04:29:22;2.42;;;1.00;;
47635;SDS011;33364;50.766;15.338;2023-06-04T04:31:50;3.42;;;1.02;;
47635;SDS011;33364;50.766;15.338;2023-06-04T04:34:22;2.40;;;1.20;;
47635;SDS011;33364;50.766;15.338;2023-06-04T04:36:49;1.30;;;0.82;;
47635;SDS011;33364;50.766;15.338;2023-06-04T04:39:27;1.90;;;1.17;;
47635;SDS011;33364;50.766;15.338;2023-06-04T04:41:54;2.20;;;1.20;;
47635;SDS011;33364;50.766;15.338;2023-06-04T04:44:20;4.10;;;1.40;;
47635;SDS011;33364;50.766;15.338;2023-06-04T04:46:47;1.83;;;1.02;;
47635;SDS011;33364;50.766;15.338;2023-06-04T04:49:14;1.63;;;1.15;;
47635;SDS011;33364;50.766;15.338;2023-06-04T04:51:39;3.00;;;1.42;;
47635;SDS011;33364;50.766;15.338;2023-06-04T04:54:05;2.20;;;1.00;;
47635;SDS011;33364;50.766;15.338;2023-06-04T04:56:34;2.38;;;1.05;;
47635;SDS011;33364;50.766;15.338;2023-06-04T04:59:00;2.90;;;1.20;;
47635;SDS011;33364;50.766;15.338;2023-06-04T05:01:26;2.22;;;1.30;;
47635;SDS011;33364;50.766;15.338;2023-06-04T05:03:52;3.03;;;1.48;;
47635;SDS011;33364;50.766;15.338;2023-06-04T05:06:18;1.73;;;0.95;;
47635;SDS011;33364;50.766;15.338;2023-06-04T05:08:45;3.38;;;0.93;;
47635;SDS011;33364;50.766;15.338;2023-06-04T05:11:10;2.08;;;0.90;;
47635;SDS011;33364;50.766;15.338;2023-06-04T05:13:36;3.08;;;1.13;;
47635;SDS011;33364;50.766;15.338;2023-06-04T05:16:02;3.13;;;1.02;;
47635;SDS011;33364;50.766;15.338;2023-06-04T05:18:36;3.47;;;1.38;;
47635;SDS011;33364;50.766;15.338;2023-06-04T05:21:05;6.90;;;1.58;;
47635;SDS011;33364;50.766;15.338;2023-06-04T05:23:32;1.38;;;0.98;;
47635;SDS011;33364;50.766;15.338;2023-06-04T05:26:00;2.05;;;1.20;;
47635;SDS011;33364;50.766;15.338;2023-06-04T05:28:30;7.75;;;4.15;;
47635;SDS011;33364;50.766;15.338;2023-06-04T05:30:59;6.47;;;3.85;;
47635;SDS011;33364;50.766;15.338;2023-06-04T05:33:25;6.10;;;3.17;;
47635;SDS011;33364;50.766;15.338;2023-06-04T05:35:51;4.65;;;1.92;;
47635;SDS011;33364;50.766;15.338;2023-06-04T05:38:17;3.75;;;2.22;;
47635;SDS011;33364;50.766;15.338;2023-06-04T05:40:44;2.25;;;1.20;;
47635;SDS011;33364;50.766;15.338;2023-06-04T05:43:10;1.83;;;1.10;;
47635;SDS011;33364;50.766;15.338;2023-06-04T05:45:36;3.47;;;1.15;;
47635;SDS011;33364;50.766;15.338;2023-06-04T05:48:03;1.92;;;1.25;;
47635;SDS011;33364;50.766;15.338;2023-06-04T05:50:29;5.88;;;2.10;;
47635;SDS011;33364;50.766;15.338;2023-06-04T05:52:56;4.60;;;1.30;;
47635;SDS011;33364;50.766;15.338;2023-06-04T05:55:22;3.70;;;1.60;;
47635;SDS011;33364;50.766;15.338;2023-06-04T05:57:48;4.00;;;1.60;;
47635;SDS011;33364;50.766;15.338;2023-06-04T06:00:16;5.57;;;1.48;;
47635;SDS011;33364;50.766;15.338;2023-06-04T06:02:43;3.28;;;1.20;;
47635;SDS011;33364;50.766;15.338;2023-06-04T06:05:10;4.10;;;1.27;;
47635;SDS011;33364;50.766;15.338;2023-06-04T06:07:36;3.58;;;1.17;;
47635;SDS011;33364;50.766;15.338;2023-06-04T06:10:02;3.00;;;0.82;;
47635;SDS011;33364;50.766;15.338;2023-06-04T06:12:29;3.67;;;1.20;;
47635;SDS011;33364;50.766;15.338;2023-06-04T06:14:55;1.50;;;1.10;;
47635;SDS011;33364;50.766;15.338;2023-06-04T06:17:21;3.42;;;1.40;;
47635;SDS011;33364;50.766;15.338;2023-06-04T06:19:48;1.55;;;1.38;;
47635;SDS011;33364;50.766;15.338;2023-06-04T06:22:13;4.20;;;1.65;;
47635;SDS011;33364;50.766;15.338;2023-06-04T06:24:39;2.03;;;0.90;;
47635;SDS011;33364;50.766;15.338;2023-06-04T06:27:05;4.78;;;2.30;;
47635;SDS011;33364;50.766;15.338;2023-06-04T06:29:31;2.38;;;1.38;;
47635;SDS011;33364;50.766;15.338;2023-06-04T06:31:57;2.72;;;1.08;;
47635;SDS011;33364;50.766;15.338;2023-06-04T06:34:23;9.10;;;4.38;;
47635;SDS011;33364;50.766;15.338;2023-06-04T06:36:49;4.60;;;1.60;;
47635;SDS011;33364;50.766;15.338;2023-06-04T06:39:15;14.93;;;1.55;;
47635;SDS011;33364;50.766;15.338;2023-06-04T06:41:41;7.15;;;1.55;;
47635;SDS011;33364;50.766;15.338;2023-06-04T06:44:07;4.80;;;1.30;;
47635;SDS011;33364;50.766;15.338;2023-06-04T06:46:33;5.18;;;1.40;;
47635;SDS011;33364;50.766;15.338;2023-06-04T06:48:59;7.65;;;1.52;;
47635;SDS011;33364;50.766;15.338;2023-06-04T06:51:25;3.92;;;1.88;;
47635;SDS011;33364;50.766;15.338;2023-06-04T06:53:50;9.65;;;1.60;;
47635;SDS011;33364;50.766;15.338;2023-06-04T06:56:16;5.28;;;1.20;;
47635;SDS011;33364;50.766;15.338;2023-06-04T06:58:43;6.75;;;2.35;;
47635;SDS011;33364;50.766;15.338;2023-06-04T07:01:10;5.43;;;1.30;;
47635;SDS011;33364;50.766;15.338;2023-06-04T07:03:36;5.75;;;1.52;;
47635;SDS011;33364;50.766;15.338;2023-06-04T07:06:02;3.10;;;1.67;;
47635;SDS011;33364;50.766;15.338;2023-06-04T07:08:27;2.67;;;1.10;;
47635;SDS011;33364;50.766;15.338;2023-06-04T07:10:54;3.05;;;1.30;;
47635;SDS011;33364;50.766;15.338;2023-06-04T07:13:19;3.47;;;1.63;;
47635;SDS011;33364;50.766;15.338;2023-06-04T07:15:46;5.90;;;1.10;;
47635;SDS011;33364;50.766;15.338;2023-06-04T07:18:11;2.00;;;1.00;;
47635;SDS011;33364;50.766;15.338;2023-06-04T07:20:37;3.20;;;1.30;;
47635;SDS011;33364;50.766;15.338;2023-06-04T07:23:03;4.05;;;1.17;;
47635;SDS011;33364;50.766;15.338;2023-06-04T07:25:29;3.78;;;1.40;;
47635;SDS011;33364;50.766;15.338;2023-06-04T07:27:55;3.63;;;1.20;;
47635;SDS011;33364;50.766;15.338;2023-06-04T07:30:24;5.25;;;1.42;;
47635;SDS011;33364;50.766;15.338;2023-06-04T07:32:50;5.13;;;1.27;;
47635;SDS011;33364;50.766;15.338;2023-06-04T07:35:16;2.80;;;1.20;;
47635;SDS011;33364;50.766;15.338;2023-06-04T07:37:42;5.30;;;1.27;;
47635;SDS011;33364;50.766;15.338;2023-06-04T07:40:11;2.67;;;1.15;;
47635;SDS011;33364;50.766;15.338;2023-06-04T07:42:37;2.67;;;1.27;;
47635;SDS011;33364;50.766;15.338;2023-06-04T07:45:03;1.50;;;1.10;;
47635;SDS011;33364;50.766;15.338;2023-06-04T07:47:29;4.50;;;1.40;;
47635;SDS011;33364;50.766;15.338;2023-06-04T07:49:55;3.22;;;1.58;;
47635;SDS011;33364;50.766;15.338;2023-06-04T07:52:20;4.75;;;1.88;;
47635;SDS011;33364;50.766;15.338;2023-06-04T07:54:46;6.32;;;1.15;;
47635;SDS011;33364;50.766;15.338;2023-06-04T07:57:12;29.65;;;2.97;;
47635;SDS011;33364;50.766;15.338;2023-06-04T07:59:38;2.42;;;1.20;;
47635;SDS011;33364;50.766;15.338;2023-06-04T08:02:03;4.07;;;1.60;;
47635;SDS011;33364;50.766;15.338;2023-06-04T08:04:30;3.03;;;1.50;;
47635;SDS011;33364;50.766;15.338;2023-06-04T08:06:56;7.25;;;1.60;;
47635;SDS011;33364;50.766;15.338;2023-06-04T08:09:22;13.55;;;1.88;;
47635;SDS011;33364;50.766;15.338;2023-06-04T08:11:48;4.57;;;1.52;;
47635;SDS011;33364;50.766;15.338;2023-06-04T08:14:14;2.97;;;1.15;;
47635;SDS011;33364;50.766;15.338;2023-06-04T08:16:40;2.67;;;1.50;;
47635;SDS011;33364;50.766;15.338;2023-06-04T08:19:06;4.90;;;1.90;;
47635;SDS011;33364;50.766;15.338;2023-06-04T08:21:33;2.78;;;1.15;;
47635;SDS011;33364;50.766;15.338;2023-06-04T08:23:59;4.32;;;1.45;;
47635;SDS011;33364;50.766;15.338;2023-06-04T08:26:25;4.38;;;1.90;;
47635;SDS011;33364;50.766;15.338;2023-06-04T08:28:52;3.65;;;1.38;;
47635;SDS011;33364;50.766;15.338;2023-06-04T08:31:20;1.58;;;0.95;;
47635;SDS011;33364;50.766;15.338;2023-06-04T08:33:51;2.97;;;1.63;;
47635;SDS011;33364;50.766;15.338;2023-06-04T08:36:17;3.45;;;1.40;;
47635;SDS011;33364;50.766;15.338;2023-06-04T08:38:44;2.65;;;1.52;;
47635;SDS011;33364;50.766;15.338;2023-06-04T08:41:34;2.38;;;1.42;;
47635;SDS011;33364;50.766;15.338;2023-06-04T08:44:04;2.42;;;1.27;;
47635;SDS011;33364;50.766;15.338;2023-06-04T08:46:31;3.20;;;1.60;;
47635;SDS011;33364;50.766;15.338;2023-06-04T08:49:02;6.53;;;1.70;;
47635;SDS011;33364;50.766;15.338;2023-06-04T08:51:29;3.08;;;1.33;;
47635;SDS011;33364;50.766;15.338;2023-06-04T08:53:58;15.73;;;2.08;;
47635;SDS011;33364;50.766;15.338;2023-06-04T08:56:25;2.67;;;1.10;;
47635;SDS011;33364;50.766;15.338;2023-06-04T08:58:52;8.40;;;2.00;;
47635;SDS011;33364;50.766;15.338;2023-06-04T09:01:22;6.78;;;1.95;;
47635;SDS011;33364;50.766;15.338;2023-06-04T09:03:48;3.38;;;1.50;;
47635;SDS011;33364;50.766;15.338;2023-06-04T09:06:14;3.55;;;1.35;;
47635;SDS011;33364;50.766;15.338;2023-06-04T09:08:41;4.13;;;1.30;;
47635;SDS011;33364;50.766;15.338;2023-06-04T09:11:10;1.73;;;1.30;;
47635;SDS011;33364;50.766;15.338;2023-06-04T09:13:39;4.63;;;1.13;;
47635;SDS011;33364;50.766;15.338;2023-06-04T09:16:07;2.40;;;1.20;;
47635;SDS011;33364;50.766;15.338;2023-06-04T09:18:33;2.25;;;1.30;;
47635;SDS011;33364;50.766;15.338;2023-06-04T09:21:05;4.53;;;1.27;;
47635;SDS011;33364;50.766;15.338;2023-06-04T09:23:45;7.13;;;1.60;;
47635;SDS011;33364;50.766;15.338;2023-06-04T09:26:12;2.45;;;1.85;;
47635;SDS011;33364;50.766;15.338;2023-06-04T09:28:42;3.53;;;1.38;;
47635;SDS011;33364;50.766;15.338;2023-06-04T09:31:10;2.92;;;1.30;;
47635;SDS011;33364;50.766;15.338;2023-06-04T09:33:44;5.15;;;1.27;;
47635;SDS011;33364;50.766;15.338;2023-06-04T09:36:11;9.63;;;1.50;;
47635;SDS011;33364;50.766;15.338;2023-06-04T09:38:37;3.67;;;1.23;;
47635;SDS011;33364;50.766;15.338;2023-06-04T09:41:03;3.15;;;1.50;;
47635;SDS011;33364;50.766;15.338;2023-06-04T09:43:30;4.82;;;1.30;;
47635;SDS011;33364;50.766;15.338;2023-06-04T09:46:08;2.75;;;1.20;;
47635;SDS011;33364;50.766;15.338;2023-06-04T09:48:38;3.05;;;1.67;;
47635;SDS011;33364;50.766;15.338;2023-06-04T09:51:09;5.47;;;1.42;;
47635;SDS011;33364;50.766;15.338;2023-06-04T09:53:37;5.63;;;1.17;;
47635;SDS011;33364;50.766;15.338;2023-06-04T09:56:03;3.50;;;1.15;;
47635;SDS011;33364;50.766;15.338;2023-06-04T09:58:30;2.78;;;1.20;;
47635;SDS011;33364;50.766;15.338;2023-06-04T10:01:00;5.78;;;1.40;;
47635;SDS011;33364;50.766;15.338;2023-06-04T10:03:35;4.43;;;1.60;;
47635;SDS011;33364;50.766;15.338;2023-06-04T10:06:02;8.63;;;1.35;;
47635;SDS011;33364;50.766;15.338;2023-06-04T10:08:33;2.50;;;1.55;;
47635;SDS011;33364;50.766;15.338;2023-06-04T10:11:00;6.40;;;1.52;;
47635;SDS011;33364;50.766;15.338;2023-06-04T10:13:29;4.90;;;1.40;;
47635;SDS011;33364;50.766;15.338;2023-06-04T10:15:56;4.30;;;1.90;;
47635;SDS011;33364;50.766;15.338;2023-06-04T10:18:24;4.95;;;2.00;;
47635;SDS011;33364;50.766;15.338;2023-06-04T10:20:52;4.28;;;1.70;;
47635;SDS011;33364;50.766;15.338;2023-06-04T10:23:19;2.45;;;1.50;;
47635;SDS011;33364;50.766;15.338;2023-06-04T10:25:48;2.97;;;1.30;;
47635;SDS011;33364;50.766;15.338;2023-06-04T10:28:16;1.90;;;1.10;;
47635;SDS011;33364;50.766;15.338;2023-06-04T10:30:44;3.92;;;1.65;;
47635;SDS011;33364;50.766;15.338;2023-06-04T10:33:10;2.83;;;1.27;;
47635;SDS011;33364;50.766;15.338;2023-06-04T10:35:36;2.08;;;1.50;;
47635;SDS011;33364;50.766;15.338;2023-06-04T10:38:08;3.38;;;1.20;;
47635;SDS011;33364;50.766;15.338;2023-06-04T10:40:36;3.22;;;1.23;;
47635;SDS011;33364;50.766;15.338;2023-06-04T10:43:20;2.78;;;1.40;;
47635;SDS011;33364;50.766;15.338;2023-06-04T10:45:46;2.55;;;1.48;;
47635;SDS011;33364;50.766;15.338;2023-06-04T10:48:12;3.15;;;1.30;;
47635;SDS011;33364;50.766;15.338;2023-06-04T10:50:51;2.83;;;1.60;;
47635;SDS011;33364;50.766;15.338;2023-06-04T10:53:18;2.60;;;1.17;;
47635;SDS011;33364;50.766;15.338;2023-06-04T10:55:45;4.43;;;1.35;;
47635;SDS011;33364;50.766;15.338;2023-06-04T10:58:12;2.20;;;1.13;;
47635;SDS011;33364;50.766;15.338;2023-06-04T11:00:38;2.13;;;1.30;;
47635;SDS011;33364;50.766;15.338;2023-06-04T11:03:11;3.35;;;1.35;;
47635;SDS011;33364;50.766;15.338;2023-06-04T11:05:38;2.47;;;1.30;;
47635;SDS011;33364;50.766;15.338;2023-06-04T11:08:04;4.07;;;1.02;;
47635;SDS011;33364;50.766;15.338;2023-06-04T11:10:31;3.90;;;1.30;;
47635;SDS011;33364;50.766;15.338;2023-06-04T11:13:02;3.58;;;1.02;;
47635;SDS011;33364;50.766;15.338;2023-06-04T11:18:05;3.35;;;1.30;;
47635;SDS011;33364;50.766;15.338;2023-06-04T11:20:31;4.22;;;1.35;;
47635;SDS011;33364;50.766;15.338;2023-06-04T11:22:58;1.45;;;1.20;;
47635;SDS011;33364;50.766;15.338;2023-06-04T11:25:28;4.25;;;1.65;;
47635;SDS011;33364;50.766;15.338;2023-06-04T11:27:56;10.43;;;2.28;;
47635;SDS011;33364;50.766;15.338;2023-06-04T11:30:23;1.83;;;1.10;;
47635;SDS011;33364;50.766;15.338;2023-06-04T11:32:49;1.27;;;1.10;;
47635;SDS011;33364;50.766;15.338;2023-06-04T11:35:15;2.40;;;1.45;;
47635;SDS011;33364;50.766;15.338;2023-06-04T11:37:41;2.38;;;1.00;;
47635;SDS011;33364;50.766;15.338;2023-06-04T11:40:18;1.90;;;1.05;;
47635;SDS011;33364;50.766;15.338;2023-06-04T11:42:46;1.45;;;1.00;;
47635;SDS011;33364;50.766;15.338;2023-06-04T11:45:16;2.28;;;1.17;;
47635;SDS011;33364;50.766;15.338;2023-06-04T11:47:44;2.03;;;1.13;;
47635;SDS011;33364;50.766;15.338;2023-06-04T11:50:12;3.72;;;1.52;;
47635;SDS011;33364;50.766;15.338;2023-06-04T11:52:38;3.65;;;1.10;;
47635;SDS011;33364;50.766;15.338;2023-06-04T11:55:05;1.13;;;0.95;;
47635;SDS011;33364;50.766;15.338;2023-06-04T11:57:35;1.77;;;1.40;;
47635;SDS011;33364;50.766;15.338;2023-06-04T12:00:02;2.53;;;1.20;;
47635;SDS011;33364;50.766;15.338;2023-06-04T12:02:28;4.95;;;1.20;;
47635;SDS011;33364;50.766;15.338;2023-06-04T12:04:54;4.15;;;1.40;;
47635;SDS011;33364;50.766;15.338;2023-06-04T12:07:20;2.03;;;1.30;;
47635;SDS011;33364;50.766;15.338;2023-06-04T12:09:49;3.13;;;1.40;;
47635;SDS011;33364;50.766;15.338;2023-06-04T12:12:20;1.77;;;0.98;;
47635;SDS011;33364;50.766;15.338;2023-06-04T12:14:47;3.28;;;1.40;;
47635;SDS011;33364;50.766;15.338;2023-06-04T12:17:21;3.22;;;1.20;;
47635;SDS011;33364;50.766;15.338;2023-06-04T12:19:47;2.40;;;1.60;;
47635;SDS011;33364;50.766;15.338;2023-06-04T12:22:14;4.72;;;1.45;;
47635;SDS011;33364;50.766;15.338;2023-06-04T12:24:47;3.20;;;1.13;;
47635;SDS011;33364;50.766;15.338;2023-06-04T12:27:22;4.68;;;1.20;;
47635;SDS011;33364;50.766;15.338;2023-06-04T12:30:01;3.00;;;1.40;;
47635;SDS011;33364;50.766;15.338;2023-06-04T12:32:29;4.47;;;1.60;;
47635;SDS011;33364;50.766;15.338;2023-06-04T12:34:55;3.63;;;1.42;;
47635;SDS011;33364;50.766;15.338;2023-06-04T12:37:21;1.90;;;1.15;;
47635;SDS011;33364;50.766;15.338;2023-06-04T12:39:48;6.47;;;1.55;;
47635;SDS011;33364;50.766;15.338;2023-06-04T12:42:13;2.55;;;1.10;;
47635;SDS011;33364;50.766;15.338;2023-06-04T12:44:39;3.75;;;1.33;;
47635;SDS011;33364;50.766;15.338;2023-06-04T12:47:06;2.65;;;1.20;;
47635;SDS011;33364;50.766;15.338;2023-06-04T12:49:33;5.50;;;1.30;;
47635;SDS011;33364;50.766;15.338;2023-06-04T12:51:59;7.95;;;1.98;;
47635;SDS011;33364;50.766;15.338;2023-06-04T12:54:26;3.35;;;2.05;;
47635;SDS011;33364;50.766;15.338;2023-06-04T12:56:53;2.38;;;1.40;;
47635;SDS011;33364;50.766;15.338;2023-06-04T12:59:18;3.22;;;1.38;;
47635;SDS011;33364;50.766;15.338;2023-06-04T13:01:44;1.85;;;1.20;;
47635;SDS011;33364;50.766;15.338;2023-06-04T13:04:10;2.80;;;1.60;;
47635;SDS011;33364;50.766;15.338;2023-06-04T13:06:36;2.30;;;1.42;;
47635;SDS011;33364;50.766;15.338;2023-06-04T13:09:03;4.85;;;1.42;;
47635;SDS011;33364;50.766;15.338;2023-06-04T13:11:36;1.90;;;1.30;;
47635;SDS011;33364;50.766;15.338;2023-06-04T13:14:03;2.97;;;1.08;;
47635;SDS011;33364;50.766;15.338;2023-06-04T13:16:28;2.65;;;1.67;;
47635;SDS011;33364;50.766;15.338;2023-06-04T13:18:54;2.00;;;1.27;;
47635;SDS011;33364;50.766;15.338;2023-06-04T13:21:20;2.88;;;1.63;;
47635;SDS011;33364;50.766;15.338;2023-06-04T13:23:46;7.05;;;1.60;;
47635;SDS011;33364;50.766;15.338;2023-06-04T13:26:12;3.60;;;1.45;;
47635;SDS011;33364;50.766;15.338;2023-06-04T13:28:38;1.85;;;1.30;;
47635;SDS011;33364;50.766;15.338;2023-06-04T13:31:04;3.20;;;1.50;;
47635;SDS011;33364;50.766;15.338;2023-06-04T13:33:29;5.03;;;1.40;;
47635;SDS011;33364;50.766;15.338;2023-06-04T13:35:55;1.60;;;1.08;;
47635;SDS011;33364;50.766;15.338;2023-06-04T13:38:21;2.45;;;1.10;;
47635;SDS011;33364;50.766;15.338;2023-06-04T13:40:47;4.28;;;1.40;;
47635;SDS011;33364;50.766;15.338;2023-06-04T13:43:12;3.58;;;1.70;;
47635;SDS011;33364;50.766;15.338;2023-06-04T13:45:38;4.65;;;1.40;;
47635;SDS011;33364;50.766;15.338;2023-06-04T13:48:05;4.43;;;1.33;;
47635;SDS011;33364;50.766;15.338;2023-06-04T13:50:33;2.17;;;1.30;;
47635;SDS011;33364;50.766;15.338;2023-06-04T13:52:59;4.70;;;1.30;;
47635;SDS011;33364;50.766;15.338;2023-06-04T13:55:25;4.03;;;1.70;;
47635;SDS011;33364;50.766;15.338;2023-06-04T13:57:50;2.70;;;1.30;;
47635;SDS011;33364;50.766;15.338;2023-06-04T14:00:16;5.15;;;1.63;;
47635;SDS011;33364;50.766;15.338;2023-06-04T14:02:42;2.97;;;1.70;;
47635;SDS011;33364;50.766;15.338;2023-06-04T14:05:08;5.65;;;1.48;;
47635;SDS011;33364;50.766;15.338;2023-06-04T14:07:34;4.03;;;1.38;;
47635;SDS011;33364;50.766;15.338;2023-06-04T14:10:00;3.92;;;1.50;;
47635;SDS011;33364;50.766;15.338;2023-06-04T14:12:26;3.45;;;1.30;;
47635;SDS011;33364;50.766;15.338;2023-06-04T14:14:52;8.10;;;1.73;;
47635;SDS011;33364;50.766;15.338;2023-06-04T14:17:17;3.85;;;1.75;;
47635;SDS011;33364;50.766;15.338;2023-06-04T14:19:44;4.68;;;1.95;;
47635;SDS011;33364;50.766;15.338;2023-06-04T14:22:10;6.05;;;2.08;;
47635;SDS011;33364;50.766;15.338;2023-06-04T14:24:39;4.60;;;1.50;;
47635;SDS011;33364;50.766;15.338;2023-06-04T14:27:05;5.35;;;1.98;;
47635;SDS011;33364;50.766;15.338;2023-06-04T14:29:32;3.50;;;1.52;;
47635;SDS011;33364;50.766;15.338;2023-06-04T14:31:59;3.17;;;1.77;;
47635;SDS011;33364;50.766;15.338;2023-06-04T14:34:25;4.15;;;1.80;;
47635;SDS011;33364;50.766;15.338;2023-06-04T14:36:51;2.47;;;1.52;;
47635;SDS011;33364;50.766;15.338;2023-06-04T14:39:17;2.15;;;1.60;;
47635;SDS011;33364;50.766;15.338;2023-06-04T14:41:42;2.85;;;1.80;;